Overview Statistics Trail Chart Weather Telemetry Raw packets
 

This is the latest recevied weather packets stored in our database for station/object CW79215. If no packets are shown the sender has not sent any weather packets the latest 10 day(s).

<< 25 26 27 28 29 30 31 >>
Time Temp. Humidity Pressure Rain* Wind** Luminosity Snow
1788108629 24.44° C 43% 1024.7 hPa - - - -
1788107729 25° C 40% 1024.7 hPa - - - -
1788106829 25.56° C 39% 1024.6 hPa - - - -
1788105929 26.11° C 39% 1024.8 hPa - - - -
1788105028 26.11° C 38% 1024.9 hPa - - - -
1788104128 26.11° C 38% 1024.9 hPa - - - -
1788103228 26.11° C 40% 1024.9 hPa - - - -
1788102328 26.11° C 40% 1025 hPa - - - -
1788101427 25.56° C 43% 1025.2 hPa - - - -
1788100537 26.11° C 43% 1025.3 hPa - - - -
1788099637 25.56° C 45% 1025.5 hPa - - - -
1788098736 26.67° C 44% 1025.6 hPa - - - -
1788097836 26.11° C 45% 1025.7 hPa - - - -
1788096936 25.56° C 45% 1025.8 hPa - - - -
1788096036 26.67° C 45% 1025.9 hPa - - - -
1788095136 26.11° C 46% 1026 hPa - - - -
1788094236 25.56° C 49% 1026.1 hPa - - - -
1788093336 25.56° C 48% 1026.2 hPa - - - -
1788092436 25.56° C 49% 1026.2 hPa - - - -
1788090628 24.44° C 50% 1026.4 hPa - - - -
1788089728 24.44° C 51% 1026.3 hPa - - - -
1788088828 25° C 50% 1026.4 hPa - - - -
1788087928 23.89° C 52% 1026.6 hPa - - - -
1788087028 24.44° C 51% 1026.6 hPa - - - -
1788086128 23.33° C 54% 1026.8 hPa - - - -

* Rain since midnight (hover to see other rain measurements)
** Current wind speed in m/s (hover to see current wind gust speed)